sensor_id;sensor_type;location;lat;lon;timestamp;P1;durP1;ratioP1;P2;durP2;ratioP2
22152;SDS011;11242;50.536;12.688;2023-06-14T00:00:50;15.80;;;13.35;;
22152;SDS011;11242;50.536;12.688;2023-06-14T00:03:17;15.65;;;13.30;;
22152;SDS011;11242;50.536;12.688;2023-06-14T00:05:47;15.50;;;13.27;;
22152;SDS011;11242;50.536;12.688;2023-06-14T00:08:13;17.33;;;13.00;;
22152;SDS011;11242;50.536;12.688;2023-06-14T00:10:39;16.15;;;12.98;;
22152;SDS011;11242;50.536;12.688;2023-06-14T00:13:07;15.90;;;12.88;;
22152;SDS011;11242;50.536;12.688;2023-06-14T00:15:33;16.58;;;12.85;;
22152;SDS011;11242;50.536;12.688;2023-06-14T00:18:00;16.08;;;14.38;;
22152;SDS011;11242;50.536;12.688;2023-06-14T00:20:26;18.05;;;14.35;;
22152;SDS011;11242;50.536;12.688;2023-06-14T00:22:53;17.63;;;14.70;;
22152;SDS011;11242;50.536;12.688;2023-06-14T00:25:20;17.50;;;14.48;;
22152;SDS011;11242;50.536;12.688;2023-06-14T00:27:53;18.02;;;14.85;;
22152;SDS011;11242;50.536;12.688;2023-06-14T00:30:19;18.20;;;15.50;;
22152;SDS011;11242;50.536;12.688;2023-06-14T00:32:46;18.13;;;14.98;;
22152;SDS011;11242;50.536;12.688;2023-06-14T00:35:12;16.67;;;14.73;;
22152;SDS011;11242;50.536;12.688;2023-06-14T00:37:37;21.42;;;16.90;;
22152;SDS011;11242;50.536;12.688;2023-06-14T00:40:03;16.92;;;15.13;;
22152;SDS011;11242;50.536;12.688;2023-06-14T00:42:30;22.55;;;15.85;;
22152;SDS011;11242;50.536;12.688;2023-06-14T00:44:56;18.30;;;15.65;;
22152;SDS011;11242;50.536;12.688;2023-06-14T00:47:23;17.55;;;15.25;;
22152;SDS011;11242;50.536;12.688;2023-06-14T00:49:52;21.48;;;14.90;;
22152;SDS011;11242;50.536;12.688;2023-06-14T00:52:19;19.38;;;15.60;;
22152;SDS011;11242;50.536;12.688;2023-06-14T00:54:45;19.30;;;14.68;;
22152;SDS011;11242;50.536;12.688;2023-06-14T00:57:11;17.63;;;15.73;;
22152;SDS011;11242;50.536;12.688;2023-06-14T00:59:44;20.00;;;15.55;;
22152;SDS011;11242;50.536;12.688;2023-06-14T01:02:12;23.00;;;15.73;;
22152;SDS011;11242;50.536;12.688;2023-06-14T01:04:40;22.98;;;15.85;;
22152;SDS011;11242;50.536;12.688;2023-06-14T01:07:12;19.25;;;15.57;;
22152;SDS011;11242;50.536;12.688;2023-06-14T01:15:24;19.67;;;16.38;;
22152;SDS011;11242;50.536;12.688;2023-06-14T01:17:51;20.65;;;17.67;;
22152;SDS011;11242;50.536;12.688;2023-06-14T01:20:19;18.30;;;16.10;;
22152;SDS011;11242;50.536;12.688;2023-06-14T01:22:53;18.55;;;15.55;;
22152;SDS011;11242;50.536;12.688;2023-06-14T01:25:19;18.40;;;16.40;;
22152;SDS011;11242;50.536;12.688;2023-06-14T01:27:47;23.40;;;16.30;;
22152;SDS011;11242;50.536;12.688;2023-06-14T01:30:17;22.35;;;16.67;;
22152;SDS011;11242;50.536;12.688;2023-06-14T01:32:45;20.42;;;16.55;;
22152;SDS011;11242;50.536;12.688;2023-06-14T01:35:12;20.30;;;15.35;;
22152;SDS011;11242;50.536;12.688;2023-06-14T01:37:37;20.35;;;16.02;;
22152;SDS011;11242;50.536;12.688;2023-06-14T01:40:05;16.83;;;15.02;;
22152;SDS011;11242;50.536;12.688;2023-06-14T01:42:34;17.90;;;15.65;;
22152;SDS011;11242;50.536;12.688;2023-06-14T01:45:02;18.55;;;15.48;;
22152;SDS011;11242;50.536;12.688;2023-06-14T01:47:29;21.75;;;15.23;;
22152;SDS011;11242;50.536;12.688;2023-06-14T01:49:55;20.50;;;15.55;;
22152;SDS011;11242;50.536;12.688;2023-06-14T01:52:21;23.70;;;15.52;;
22152;SDS011;11242;50.536;12.688;2023-06-14T01:54:49;18.20;;;15.38;;
22152;SDS011;11242;50.536;12.688;2023-06-14T01:57:15;22.40;;;15.93;;
22152;SDS011;11242;50.536;12.688;2023-06-14T01:59:41;16.98;;;14.48;;
22152;SDS011;11242;50.536;12.688;2023-06-14T02:02:07;18.77;;;15.70;;
22152;SDS011;11242;50.536;12.688;2023-06-14T02:04:33;18.15;;;15.45;;
22152;SDS011;11242;50.536;12.688;2023-06-14T02:06:59;23.02;;;16.63;;
22152;SDS011;11242;50.536;12.688;2023-06-14T02:09:25;16.40;;;14.70;;
22152;SDS011;11242;50.536;12.688;2023-06-14T02:11:53;19.38;;;15.00;;
22152;SDS011;11242;50.536;12.688;2023-06-14T02:14:23;20.42;;;15.15;;
22152;SDS011;11242;50.536;12.688;2023-06-14T02:16:49;22.95;;;15.50;;
22152;SDS011;11242;50.536;12.688;2023-06-14T02:19:15;17.15;;;15.32;;
22152;SDS011;11242;50.536;12.688;2023-06-14T02:21:41;18.80;;;15.63;;
22152;SDS011;11242;50.536;12.688;2023-06-14T02:24:07;17.17;;;14.60;;
22152;SDS011;11242;50.536;12.688;2023-06-14T02:26:33;17.00;;;14.32;;
22152;SDS011;11242;50.536;12.688;2023-06-14T02:28:59;19.17;;;15.90;;
22152;SDS011;11242;50.536;12.688;2023-06-14T02:31:25;18.05;;;14.98;;
22152;SDS011;11242;50.536;12.688;2023-06-14T02:33:52;16.80;;;14.52;;
22152;SDS011;11242;50.536;12.688;2023-06-14T02:36:22;18.58;;;14.32;;
22152;SDS011;11242;50.536;12.688;2023-06-14T02:38:47;17.15;;;14.75;;
22152;SDS011;11242;50.536;12.688;2023-06-14T02:41:13;16.20;;;13.73;;
22152;SDS011;11242;50.536;12.688;2023-06-14T02:43:39;17.50;;;14.70;;
22152;SDS011;11242;50.536;12.688;2023-06-14T02:46:05;19.60;;;15.60;;
22152;SDS011;11242;50.536;12.688;2023-06-14T02:48:32;18.35;;;14.70;;
22152;SDS011;11242;50.536;12.688;2023-06-14T02:50:57;16.60;;;14.27;;
22152;SDS011;11242;50.536;12.688;2023-06-14T02:53:23;18.48;;;14.10;;
22152;SDS011;11242;50.536;12.688;2023-06-14T02:55:48;18.30;;;14.00;;
22152;SDS011;11242;50.536;12.688;2023-06-14T02:58:14;17.13;;;13.50;;
22152;SDS011;11242;50.536;12.688;2023-06-14T03:00:41;17.65;;;13.75;;
22152;SDS011;11242;50.536;12.688;2023-06-14T03:03:07;15.98;;;13.50;;
22152;SDS011;11242;50.536;12.688;2023-06-14T03:05:46;18.60;;;13.70;;
22152;SDS011;11242;50.536;12.688;2023-06-14T03:08:17;17.45;;;13.80;;
22152;SDS011;11242;50.536;12.688;2023-06-14T03:10:45;17.63;;;13.32;;
22152;SDS011;11242;50.536;12.688;2023-06-14T03:13:12;16.55;;;13.27;;
22152;SDS011;11242;50.536;12.688;2023-06-14T03:15:39;16.65;;;14.45;;
22152;SDS011;11242;50.536;12.688;2023-06-14T03:18:09;17.35;;;13.65;;
22152;SDS011;11242;50.536;12.688;2023-06-14T03:20:37;15.82;;;13.38;;
22152;SDS011;11242;50.536;12.688;2023-06-14T03:23:05;15.02;;;13.00;;
22152;SDS011;11242;50.536;12.688;2023-06-14T03:25:31;19.98;;;13.07;;
22152;SDS011;11242;50.536;12.688;2023-06-14T03:28:04;17.63;;;13.98;;
22152;SDS011;11242;50.536;12.688;2023-06-14T03:30:30;17.63;;;13.23;;
22152;SDS011;11242;50.536;12.688;2023-06-14T03:32:57;18.73;;;13.55;;
22152;SDS011;11242;50.536;12.688;2023-06-14T03:35:27;14.65;;;12.20;;
22152;SDS011;11242;50.536;12.688;2023-06-14T03:37:54;17.92;;;12.80;;
22152;SDS011;11242;50.536;12.688;2023-06-14T03:40:20;19.08;;;13.23;;
22152;SDS011;11242;50.536;12.688;2023-06-14T03:42:50;18.60;;;12.18;;
22152;SDS011;11242;50.536;12.688;2023-06-14T03:45:15;13.15;;;11.75;;
22152;SDS011;11242;50.536;12.688;2023-06-14T03:47:41;14.52;;;11.90;;
22152;SDS011;11242;50.536;12.688;2023-06-14T03:50:07;19.10;;;12.15;;
22152;SDS011;11242;50.536;12.688;2023-06-14T03:52:33;14.77;;;11.55;;
22152;SDS011;11242;50.536;12.688;2023-06-14T03:54:59;12.55;;;11.15;;
22152;SDS011;11242;50.536;12.688;2023-06-14T03:57:26;13.38;;;11.27;;
22152;SDS011;11242;50.536;12.688;2023-06-14T03:59:53;11.85;;;10.52;;
22152;SDS011;11242;50.536;12.688;2023-06-14T04:02:19;12.75;;;10.93;;
22152;SDS011;11242;50.536;12.688;2023-06-14T04:04:45;12.40;;;11.10;;
22152;SDS011;11242;50.536;12.688;2023-06-14T04:07:11;15.82;;;10.30;;
22152;SDS011;11242;50.536;12.688;2023-06-14T04:09:38;13.82;;;9.82;;
22152;SDS011;11242;50.536;12.688;2023-06-14T04:12:05;9.63;;;8.65;;
22152;SDS011;11242;50.536;12.688;2023-06-14T04:14:31;12.20;;;8.57;;
22152;SDS011;11242;50.536;12.688;2023-06-14T04:16:58;11.57;;;8.00;;
22152;SDS011;11242;50.536;12.688;2023-06-14T04:19:24;11.90;;;7.28;;
22152;SDS011;11242;50.536;12.688;2023-06-14T04:21:50;7.70;;;6.97;;
22152;SDS011;11242;50.536;12.688;2023-06-14T04:24:17;9.20;;;7.25;;
22152;SDS011;11242;50.536;12.688;2023-06-14T04:26:45;7.20;;;6.60;;
22152;SDS011;11242;50.536;12.688;2023-06-14T04:29:14;8.32;;;7.03;;
22152;SDS011;11242;50.536;12.688;2023-06-14T04:31:42;7.38;;;6.68;;
22152;SDS011;11242;50.536;12.688;2023-06-14T04:34:10;12.30;;;6.90;;
22152;SDS011;11242;50.536;12.688;2023-06-14T04:36:44;18.55;;;9.45;;
22152;SDS011;11242;50.536;12.688;2023-06-14T04:39:15;12.65;;;9.57;;
22152;SDS011;11242;50.536;12.688;2023-06-14T04:41:46;44.85;;;24.38;;
22152;SDS011;11242;50.536;12.688;2023-06-14T04:44:12;20.83;;;14.32;;
22152;SDS011;11242;50.536;12.688;2023-06-14T04:46:43;16.33;;;11.90;;
22152;SDS011;11242;50.536;12.688;2023-06-14T04:51:41;12.90;;;9.27;;
22152;SDS011;11242;50.536;12.688;2023-06-14T04:54:08;8.82;;;7.93;;
22152;SDS011;11242;50.536;12.688;2023-06-14T04:59:07;8.27;;;7.57;;
22152;SDS011;11242;50.536;12.688;2023-06-14T05:01:34;9.00;;;8.07;;
22152;SDS011;11242;50.536;12.688;2023-06-14T05:04:00;9.98;;;7.20;;
22152;SDS011;11242;50.536;12.688;2023-06-14T05:06:26;8.80;;;7.90;;
22152;SDS011;11242;50.536;12.688;2023-06-14T05:08:54;8.77;;;7.75;;
22152;SDS011;11242;50.536;12.688;2023-06-14T05:11:19;10.02;;;7.75;;
22152;SDS011;11242;50.536;12.688;2023-06-14T05:13:45;10.30;;;7.25;;
22152;SDS011;11242;50.536;12.688;2023-06-14T05:16:12;8.85;;;7.35;;
22152;SDS011;11242;50.536;12.688;2023-06-14T05:18:40;7.72;;;7.13;;
22152;SDS011;11242;50.536;12.688;2023-06-14T05:21:06;9.88;;;7.28;;
22152;SDS011;11242;50.536;12.688;2023-06-14T05:23:34;7.68;;;7.05;;
22152;SDS011;11242;50.536;12.688;2023-06-14T05:26:00;8.10;;;7.40;;
22152;SDS011;11242;50.536;12.688;2023-06-14T05:28:29;7.55;;;6.82;;
22152;SDS011;11242;50.536;12.688;2023-06-14T05:30:55;11.70;;;6.88;;
22152;SDS011;11242;50.536;12.688;2023-06-14T05:33:21;7.30;;;6.60;;
22152;SDS011;11242;50.536;12.688;2023-06-14T05:35:47;7.00;;;6.32;;
22152;SDS011;11242;50.536;12.688;2023-06-14T05:38:12;6.72;;;6.13;;
22152;SDS011;11242;50.536;12.688;2023-06-14T05:40:38;8.05;;;6.30;;
22152;SDS011;11242;50.536;12.688;2023-06-14T05:43:03;9.38;;;6.40;;
22152;SDS011;11242;50.536;12.688;2023-06-14T05:45:29;7.45;;;6.85;;
22152;SDS011;11242;50.536;12.688;2023-06-14T05:47:55;9.25;;;5.97;;
22152;SDS011;11242;50.536;12.688;2023-06-14T05:50:20;6.75;;;6.10;;
22152;SDS011;11242;50.536;12.688;2023-06-14T05:52:46;6.88;;;6.38;;
22152;SDS011;11242;50.536;12.688;2023-06-14T05:55:12;9.10;;;7.63;;
22152;SDS011;11242;50.536;12.688;2023-06-14T05:57:41;9.27;;;7.60;;
22152;SDS011;11242;50.536;12.688;2023-06-14T06:00:07;12.32;;;6.32;;
22152;SDS011;11242;50.536;12.688;2023-06-14T06:02:37;6.43;;;5.82;;
22152;SDS011;11242;50.536;12.688;2023-06-14T06:05:03;6.00;;;5.40;;
22152;SDS011;11242;50.536;12.688;2023-06-14T06:07:28;5.88;;;5.28;;
22152;SDS011;11242;50.536;12.688;2023-06-14T06:09:54;6.53;;;4.32;;
22152;SDS011;11242;50.536;12.688;2023-06-14T06:12:20;4.85;;;4.35;;
22152;SDS011;11242;50.536;12.688;2023-06-14T06:14:45;4.60;;;4.20;;
22152;SDS011;11242;50.536;12.688;2023-06-14T06:17:11;5.20;;;4.80;;
22152;SDS011;11242;50.536;12.688;2023-06-14T06:19:36;7.30;;;4.20;;
22152;SDS011;11242;50.536;12.688;2023-06-14T06:22:02;5.03;;;4.63;;
22152;SDS011;11242;50.536;12.688;2023-06-14T06:24:31;6.90;;;4.40;;
22152;SDS011;11242;50.536;12.688;2023-06-14T06:26:57;4.82;;;4.38;;
22152;SDS011;11242;50.536;12.688;2023-06-14T06:29:22;5.20;;;4.70;;
22152;SDS011;11242;50.536;12.688;2023-06-14T06:31:48;4.57;;;3.95;;
22152;SDS011;11242;50.536;12.688;2023-06-14T06:34:13;5.90;;;4.30;;
22152;SDS011;11242;50.536;12.688;2023-06-14T06:36:39;6.35;;;4.30;;
22152;SDS011;11242;50.536;12.688;2023-06-14T06:39:04;4.47;;;4.18;;
22152;SDS011;11242;50.536;12.688;2023-06-14T06:41:35;4.53;;;4.15;;
22152;SDS011;11242;50.536;12.688;2023-06-14T06:44:06;5.65;;;4.53;;
22152;SDS011;11242;50.536;12.688;2023-06-14T06:46:32;5.28;;;4.28;;
22152;SDS011;11242;50.536;12.688;2023-06-14T06:48:59;4.68;;;4.10;;
22152;SDS011;11242;50.536;12.688;2023-06-14T06:51:25;4.70;;;4.30;;
22152;SDS011;11242;50.536;12.688;2023-06-14T06:53:53;4.38;;;4.07;;
22152;SDS011;11242;50.536;12.688;2023-06-14T06:56:20;7.07;;;4.00;;
22152;SDS011;11242;50.536;12.688;2023-06-14T06:58:48;4.90;;;4.40;;
22152;SDS011;11242;50.536;12.688;2023-06-14T07:01:15;4.50;;;4.10;;
22152;SDS011;11242;50.536;12.688;2023-06-14T07:03:41;4.28;;;3.95;;
22152;SDS011;11242;50.536;12.688;2023-06-14T07:06:06;4.25;;;3.60;;
22152;SDS011;11242;50.536;12.688;2023-06-14T07:08:32;4.32;;;3.92;;
22152;SDS011;11242;50.536;12.688;2023-06-14T07:10:57;5.30;;;3.97;;
22152;SDS011;11242;50.536;12.688;2023-06-14T07:13:23;4.95;;;4.30;;
22152;SDS011;11242;50.536;12.688;2023-06-14T07:15:49;6.15;;;3.80;;
22152;SDS011;11242;50.536;12.688;2023-06-14T07:18:15;4.60;;;3.75;;
22152;SDS011;11242;50.536;12.688;2023-06-14T07:20:40;5.30;;;3.58;;
22152;SDS011;11242;50.536;12.688;2023-06-14T07:23:08;4.35;;;3.45;;
22152;SDS011;11242;50.536;12.688;2023-06-14T07:25:33;5.50;;;3.92;;
22152;SDS011;11242;50.536;12.688;2023-06-14T07:27:59;3.67;;;3.28;;
22152;SDS011;11242;50.536;12.688;2023-06-14T07:30:24;4.32;;;3.67;;
22152;SDS011;11242;50.536;12.688;2023-06-14T07:32:52;3.90;;;3.60;;
22152;SDS011;11242;50.536;12.688;2023-06-14T07:35:18;4.03;;;3.60;;
22152;SDS011;11242;50.536;12.688;2023-06-14T07:37:47;5.18;;;3.80;;
22152;SDS011;11242;50.536;12.688;2023-06-14T07:40:13;4.93;;;3.90;;
22152;SDS011;11242;50.536;12.688;2023-06-14T07:42:39;4.38;;;3.53;;
22152;SDS011;11242;50.536;12.688;2023-06-14T07:45:04;4.95;;;3.88;;
22152;SDS011;11242;50.536;12.688;2023-06-14T07:47:31;3.80;;;3.50;;
22152;SDS011;11242;50.536;12.688;2023-06-14T07:49:57;4.90;;;3.50;;
22152;SDS011;11242;50.536;12.688;2023-06-14T07:52:22;5.13;;;4.00;;
22152;SDS011;11242;50.536;12.688;2023-06-14T07:54:48;4.13;;;3.70;;
22152;SDS011;11242;50.536;12.688;2023-06-14T07:57:13;6.68;;;3.60;;
22152;SDS011;11242;50.536;12.688;2023-06-14T07:59:39;8.07;;;3.88;;
22152;SDS011;11242;50.536;12.688;2023-06-14T08:02:04;3.90;;;3.45;;
22152;SDS011;11242;50.536;12.688;2023-06-14T08:04:31;4.65;;;3.80;;
22152;SDS011;11242;50.536;12.688;2023-06-14T08:06:58;6.30;;;4.07;;
22152;SDS011;11242;50.536;12.688;2023-06-14T08:09:27;5.95;;;3.45;;
22152;SDS011;11242;50.536;12.688;2023-06-14T08:11:54;10.88;;;4.60;;
22152;SDS011;11242;50.536;12.688;2023-06-14T08:14:20;6.85;;;4.57;;
22152;SDS011;11242;50.536;12.688;2023-06-14T08:16:45;5.38;;;4.05;;
22152;SDS011;11242;50.536;12.688;2023-06-14T08:19:11;5.32;;;4.60;;
22152;SDS011;11242;50.536;12.688;2023-06-14T08:21:36;4.72;;;4.28;;
22152;SDS011;11242;50.536;12.688;2023-06-14T08:24:02;4.45;;;4.05;;
22152;SDS011;11242;50.536;12.688;2023-06-14T08:26:29;4.97;;;4.20;;
22152;SDS011;11242;50.536;12.688;2023-06-14T08:28:55;5.60;;;4.43;;
22152;SDS011;11242;50.536;12.688;2023-06-14T08:31:21;4.70;;;4.03;;
22152;SDS011;11242;50.536;12.688;2023-06-14T08:33:47;8.95;;;4.57;;
22152;SDS011;11242;50.536;12.688;2023-06-14T08:36:12;5.68;;;4.75;;
22152;SDS011;11242;50.536;12.688;2023-06-14T08:38:38;5.82;;;4.78;;
22152;SDS011;11242;50.536;12.688;2023-06-14T08:41:05;4.53;;;4.10;;
22152;SDS011;11242;50.536;12.688;2023-06-14T08:43:34;4.72;;;4.28;;
22152;SDS011;11242;50.536;12.688;2023-06-14T08:46:03;5.22;;;4.25;;
22152;SDS011;11242;50.536;12.688;2023-06-14T08:48:29;4.18;;;3.78;;
22152;SDS011;11242;50.536;12.688;2023-06-14T08:51:01;7.75;;;4.30;;
22152;SDS011;11242;50.536;12.688;2023-06-14T08:53:30;4.93;;;4.43;;
22152;SDS011;11242;50.536;12.688;2023-06-14T08:55:57;6.38;;;4.50;;
22152;SDS011;11242;50.536;12.688;2023-06-14T08:58:28;5.22;;;4.30;;
22152;SDS011;11242;50.536;12.688;2023-06-14T09:00:58;4.90;;;4.33;;
22152;SDS011;11242;50.536;12.688;2023-06-14T09:03:27;6.55;;;4.22;;
22152;SDS011;11242;50.536;12.688;2023-06-14T09:05:58;4.80;;;4.30;;
22152;SDS011;11242;50.536;12.688;2023-06-14T09:08:24;5.53;;;4.18;;
22152;SDS011;11242;50.536;12.688;2023-06-14T09:10:51;8.07;;;4.38;;
22152;SDS011;11242;50.536;12.688;2023-06-14T09:13:16;4.68;;;4.28;;
22152;SDS011;11242;50.536;12.688;2023-06-14T09:15:43;6.78;;;4.57;;
22152;SDS011;11242;50.536;12.688;2023-06-14T09:18:08;4.32;;;3.75;;
22152;SDS011;11242;50.536;12.688;2023-06-14T09:20:34;5.40;;;4.13;;
22152;SDS011;11242;50.536;12.688;2023-06-14T09:23:00;4.50;;;4.10;;
22152;SDS011;11242;50.536;12.688;2023-06-14T09:25:26;5.03;;;4.07;;
22152;SDS011;11242;50.536;12.688;2023-06-14T09:27:52;4.25;;;3.95;;
22152;SDS011;11242;50.536;12.688;2023-06-14T09:30:19;4.82;;;4.43;;
22152;SDS011;11242;50.536;12.688;2023-06-14T09:32:45;8.57;;;4.22;;
22152;SDS011;11242;50.536;12.688;2023-06-14T09:35:11;8.38;;;6.55;;
22152;SDS011;11242;50.536;12.688;2023-06-14T09:37:36;5.40;;;4.43;;
22152;SDS011;11242;50.536;12.688;2023-06-14T09:40:03;5.55;;;4.43;;
22152;SDS011;11242;50.536;12.688;2023-06-14T09:42:29;6.05;;;4.20;;
22152;SDS011;11242;50.536;12.688;2023-06-14T09:44:56;4.90;;;4.40;;
22152;SDS011;11242;50.536;12.688;2023-06-14T09:47:23;9.38;;;4.40;;
22152;SDS011;11242;50.536;12.688;2023-06-14T09:49:50;6.88;;;4.55;;
22152;SDS011;11242;50.536;12.688;2023-06-14T09:52:17;7.00;;;4.35;;
22152;SDS011;11242;50.536;12.688;2023-06-14T09:54:44;7.00;;;4.45;;
22152;SDS011;11242;50.536;12.688;2023-06-14T09:57:16;6.38;;;4.78;;
22152;SDS011;11242;50.536;12.688;2023-06-14T09:59:45;10.00;;;5.55;;
22152;SDS011;11242;50.536;12.688;2023-06-14T10:02:24;7.40;;;4.90;;
22152;SDS011;11242;50.536;12.688;2023-06-14T10:05:06;7.75;;;4.10;;
22152;SDS011;11242;50.536;12.688;2023-06-14T10:07:41;7.90;;;4.38;;
22152;SDS011;11242;50.536;12.688;2023-06-14T10:10:10;14.20;;;5.50;;
22152;SDS011;11242;50.536;12.688;2023-06-14T10:12:36;4.72;;;4.32;;
22152;SDS011;11242;50.536;12.688;2023-06-14T10:15:08;7.45;;;4.60;;
22152;SDS011;11242;50.536;12.688;2023-06-14T10:17:47;5.35;;;4.80;;
22152;SDS011;11242;50.536;12.688;2023-06-14T10:23:06;4.85;;;4.30;;
22152;SDS011;11242;50.536;12.688;2023-06-14T10:25:36;5.55;;;4.63;;
22152;SDS011;11242;50.536;12.688;2023-06-14T10:28:05;5.88;;;4.80;;
22152;SDS011;11242;50.536;12.688;2023-06-14T10:31:09;7.68;;;4.68;;
22152;SDS011;11242;50.536;12.688;2023-06-14T10:33:37;5.13;;;4.65;;
22152;SDS011;11242;50.536;12.688;2023-06-14T10:41:40;5.40;;;4.80;;
22152;SDS011;11242;50.536;12.688;2023-06-14T10:46:37;4.97;;;4.32;;
22152;SDS011;11242;50.536;12.688;2023-06-14T10:49:03;4.78;;;4.25;;
22152;SDS011;11242;50.536;12.688;2023-06-14T10:51:29;5.40;;;4.43;;
22152;SDS011;11242;50.536;12.688;2023-06-14T10:53:56;6.18;;;4.93;;
22152;SDS011;11242;50.536;12.688;2023-06-14T10:56:28;5.68;;;4.90;;
22152;SDS011;11242;50.536;12.688;2023-06-14T10:58:56;5.10;;;4.65;;
22152;SDS011;11242;50.536;12.688;2023-06-14T11:01:26;5.15;;;4.68;;
22152;SDS011;11242;50.536;12.688;2023-06-14T11:04:07;4.95;;;4.43;;
22152;SDS011;11242;50.536;12.688;2023-06-14T11:06:41;6.78;;;4.10;;
22152;SDS011;11242;50.536;12.688;2023-06-14T11:14:35;5.03;;;4.63;;
22152;SDS011;11242;50.536;12.688;2023-06-14T11:17:00;4.95;;;4.55;;
22152;SDS011;11242;50.536;12.688;2023-06-14T11:19:26;4.90;;;4.40;;
22152;SDS011;11242;50.536;12.688;2023-06-14T11:21:53;6.13;;;4.53;;
22152;SDS011;11242;50.536;12.688;2023-06-14T11:24:19;5.00;;;4.47;;
22152;SDS011;11242;50.536;12.688;2023-06-14T11:26:46;5.82;;;5.00;;
22152;SDS011;11242;50.536;12.688;2023-06-14T11:29:14;7.55;;;4.97;;
22152;SDS011;11242;50.536;12.688;2023-06-14T11:31:43;5.43;;;4.50;;
22152;SDS011;11242;50.536;12.688;2023-06-14T11:34:12;5.40;;;4.82;;
22152;SDS011;11242;50.536;12.688;2023-06-14T11:36:38;5.82;;;4.75;;
22152;SDS011;11242;50.536;12.688;2023-06-14T11:39:05;5.35;;;4.72;;
22152;SDS011;11242;50.536;12.688;2023-06-14T11:44:12;7.28;;;5.45;;
22152;SDS011;11242;50.536;12.688;2023-06-14T11:46:38;5.30;;;4.80;;
22152;SDS011;11242;50.536;12.688;2023-06-14T11:49:04;5.53;;;5.03;;
22152;SDS011;11242;50.536;12.688;2023-06-14T11:51:32;4.68;;;4.20;;
22152;SDS011;11242;50.536;12.688;2023-06-14T11:53:58;5.43;;;4.70;;
22152;SDS011;11242;50.536;12.688;2023-06-14T11:56:25;7.18;;;5.32;;
22152;SDS011;11242;50.536;12.688;2023-06-14T11:58:52;6.35;;;4.75;;
22152;SDS011;11242;50.536;12.688;2023-06-14T12:01:21;5.47;;;5.00;;
22152;SDS011;11242;50.536;12.688;2023-06-14T12:03:47;5.63;;;5.13;;
22152;SDS011;11242;50.536;12.688;2023-06-14T12:06:25;5.30;;;4.80;;
22152;SDS011;11242;50.536;12.688;2023-06-14T12:08:57;5.35;;;4.80;;
22152;SDS011;11242;50.536;12.688;2023-06-14T12:11:23;5.38;;;4.88;;
22152;SDS011;11242;50.536;12.688;2023-06-14T12:13:53;6.03;;;4.35;;
22152;SDS011;11242;50.536;12.688;2023-06-14T12:16:18;6.00;;;4.68;;
22152;SDS011;11242;50.536;12.688;2023-06-14T12:18:44;6.28;;;4.70;;
22152;SDS011;11242;50.536;12.688;2023-06-14T12:21:10;4.78;;;4.10;;
22152;SDS011;11242;50.536;12.688;2023-06-14T12:23:49;5.63;;;4.47;;
22152;SDS011;11242;50.536;12.688;2023-06-14T12:26:16;6.72;;;4.45;;
22152;SDS011;11242;50.536;12.688;2023-06-14T12:28:43;6.47;;;4.70;;
22152;SDS011;11242;50.536;12.688;2023-06-14T12:31:11;6.15;;;4.80;;
22152;SDS011;11242;50.536;12.688;2023-06-14T12:33:38;5.53;;;4.80;;
22152;SDS011;11242;50.536;12.688;2023-06-14T12:36:08;4.85;;;4.45;;
22152;SDS011;11242;50.536;12.688;2023-06-14T12:38:36;4.88;;;4.35;;
22152;SDS011;11242;50.536;12.688;2023-06-14T12:41:01;5.18;;;4.70;;
22152;SDS011;11242;50.536;12.688;2023-06-14T12:43:28;5.32;;;4.82;;
22152;SDS011;11242;50.536;12.688;2023-06-14T12:45:53;5.82;;;4.68;;
22152;SDS011;11242;50.536;12.688;2023-06-14T12:48:19;5.22;;;4.72;;
22152;SDS011;11242;50.536;12.688;2023-06-14T12:50:45;7.45;;;4.82;;
22152;SDS011;11242;50.536;12.688;2023-06-14T12:53:11;5.03;;;4.50;;
22152;SDS011;11242;50.536;12.688;2023-06-14T12:55:37;6.88;;;4.65;;
22152;SDS011;11242;50.536;12.688;2023-06-14T12:58:02;5.30;;;4.80;;
22152;SDS011;11242;50.536;12.688;2023-06-14T13:00:28;5.13;;;4.60;;
22152;SDS011;11242;50.536;12.688;2023-06-14T13:02:55;5.88;;;4.50;;
22152;SDS011;11242;50.536;12.688;2023-06-14T13:05:21;5.78;;;4.53;;
22152;SDS011;11242;50.536;12.688;2023-06-14T13:07:47;4.93;;;4.50;;
22152;SDS011;11242;50.536;12.688;2023-06-14T13:10:12;5.40;;;4.80;;
22152;SDS011;11242;50.536;12.688;2023-06-14T13:12:38;5.55;;;4.88;;
22152;SDS011;11242;50.536;12.688;2023-06-14T13:15:05;4.82;;;4.22;;
22152;SDS011;11242;50.536;12.688;2023-06-14T13:17:32;4.68;;;4.28;;
22152;SDS011;11242;50.536;12.688;2023-06-14T13:20:03;5.10;;;3.97;;
22152;SDS011;11242;50.536;12.688;2023-06-14T13:22:33;4.03;;;3.72;;
22152;SDS011;11242;50.536;12.688;2023-06-14T13:24:59;3.80;;;3.50;;
22152;SDS011;11242;50.536;12.688;2023-06-14T13:27:25;3.78;;;3.47;;
22152;SDS011;11242;50.536;12.688;2023-06-14T13:29:51;4.97;;;3.72;;
22152;SDS011;11242;50.536;12.688;2023-06-14T13:32:17;4.65;;;4.25;;
22152;SDS011;11242;50.536;12.688;2023-06-14T13:34:42;4.10;;;3.70;;
22152;SDS011;11242;50.536;12.688;2023-06-14T13:37:08;4.10;;;3.70;;
22152;SDS011;11242;50.536;12.688;2023-06-14T13:39:34;5.07;;;3.78;;
22152;SDS011;11242;50.536;12.688;2023-06-14T13:42:02;4.57;;;3.30;;
22152;SDS011;11242;50.536;12.688;2023-06-14T13:44:28;8.93;;;3.42;;
22152;SDS011;11242;50.536;12.688;2023-06-14T13:46:53;4.65;;;3.58;;
22152;SDS011;11242;50.536;12.688;2023-06-14T13:49:19;4.38;;;3.33;;
22152;SDS011;11242;50.536;12.688;2023-06-14T13:51:48;3.53;;;3.22;;
22152;SDS011;11242;50.536;12.688;2023-06-14T13:54:14;7.25;;;3.60;;
22152;SDS011;11242;50.536;12.688;2023-06-14T13:56:40;3.40;;;3.10;;
22152;SDS011;11242;50.536;12.688;2023-06-14T13:59:06;5.35;;;3.67;;
22152;SDS011;11242;50.536;12.688;2023-06-14T14:01:32;6.10;;;3.60;;
22152;SDS011;11242;50.536;12.688;2023-06-14T14:03:58;4.43;;;3.83;;
22152;SDS011;11242;50.536;12.688;2023-06-14T14:06:25;4.93;;;4.05;;
22152;SDS011;11242;50.536;12.688;2023-06-14T14:08:51;7.95;;;4.38;;
22152;SDS011;11242;50.536;12.688;2023-06-14T14:11:17;4.60;;;4.20;;
22152;SDS011;11242;50.536;12.688;2023-06-14T14:13:43;7.03;;;4.10;;
22152;SDS011;11242;50.536;12.688;2023-06-14T14:16:09;5.28;;;4.78;;
22152;SDS011;11242;50.536;12.688;2023-06-14T14:18:35;5.65;;;4.70;;
22152;SDS011;11242;50.536;12.688;2023-06-14T14:21:02;5.00;;;4.60;;
22152;SDS011;11242;50.536;12.688;2023-06-14T14:23:27;5.75;;;4.63;;
22152;SDS011;11242;50.536;12.688;2023-06-14T14:25:56;8.20;;;5.03;;
22152;SDS011;11242;50.536;12.688;2023-06-14T14:28:22;5.03;;;4.50;;
22152;SDS011;11242;50.536;12.688;2023-06-14T14:30:48;4.88;;;4.43;;
22152;SDS011;11242;50.536;12.688;2023-06-14T14:33:14;4.85;;;4.45;;
22152;SDS011;11242;50.536;12.688;2023-06-14T14:35:45;6.85;;;4.65;;
22152;SDS011;11242;50.536;12.688;2023-06-14T14:38:13;6.40;;;4.32;;
22152;SDS011;11242;50.536;12.688;2023-06-14T14:40:41;5.18;;;4.43;;
22152;SDS011;11242;50.536;12.688;2023-06-14T14:43:07;5.32;;;4.13;;
22152;SDS011;11242;50.536;12.688;2023-06-14T14:45:33;5.03;;;4.63;;
22152;SDS011;11242;50.536;12.688;2023-06-14T14:48:00;6.07;;;4.30;;
22152;SDS011;11242;50.536;12.688;2023-06-14T14:50:26;5.95;;;4.40;;
22152;SDS011;11242;50.536;12.688;2023-06-14T14:52:51;4.60;;;4.20;;
22152;SDS011;11242;50.536;12.688;2023-06-14T14:55:17;5.10;;;3.85;;